Sturdies Bay, Canada
Current Conditions -  °F | °C
As of 11:16 AM on Friday 24 Oct 2014 (Local Time) from CYYJ Reporting Station
Broken Clouds Broken Clouds  
Wind Chill: 50°   Ceiling: 2200
Heat Index: 50°   Visibility: 30mi
Dew Point: 46°   Wind: 0mph
Humidity: 87%   Direction: NA
Pressure: 30.06"   Gusts: NA
Location:  48.88°N, 123.32°W
Report Text: CYYJ 241816Z 00000KT 30SM FEW009 FEW013 BKN022 BKN040 10/08 A3006 RMK SF1SC2SC4SC1 SF TR SLP179
Loading
Personal Weather Stations






























Interactive Weather Map
Tropical Storm Tracking
New forecast layout! Learn more

10-Day Weather Forecast

Advertisements
Track Severe Weather on mobile